sensor_id;sensor_type;location;lat;lon;timestamp;pressure;altitude;pressure_sealevel;temperature;humidity
84188;BME280;74316;45.648;13.764;2024-01-27T00:01:51;102575.44;;;20.08;60.06
84188;BME280;74316;45.648;13.764;2024-01-27T00:04:16;102587.00;;;20.08;60.33
84188;BME280;74316;45.648;13.764;2024-01-27T00:06:42;102587.19;;;20.07;60.48
84188;BME280;74316;45.648;13.764;2024-01-27T00:09:08;102581.16;;;20.05;60.89
84188;BME280;74316;45.648;13.764;2024-01-27T00:11:34;102584.84;;;20.04;60.72
84188;BME280;74316;45.648;13.764;2024-01-27T00:14:00;102585.84;;;20.03;60.37
84188;BME280;74316;45.648;13.764;2024-01-27T00:16:26;102584.16;;;20.02;60.71
84188;BME280;74316;45.648;13.764;2024-01-27T00:18:52;102578.97;;;20.00;60.12
84188;BME280;74316;45.648;13.764;2024-01-27T00:21:18;102582.66;;;19.99;60.56
84188;BME280;74316;45.648;13.764;2024-01-27T00:23:44;102587.16;;;19.99;60.11
84188;BME280;74316;45.648;13.764;2024-01-27T00:26:10;102578.47;;;19.97;60.36
84188;BME280;74316;45.648;13.764;2024-01-27T00:28:36;102574.13;;;19.96;60.87
84188;BME280;74316;45.648;13.764;2024-01-27T00:31:01;102576.78;;;19.96;60.37
84188;BME280;74316;45.648;13.764;2024-01-27T00:33:27;102590.19;;;19.96;60.85
84188;BME280;74316;45.648;13.764;2024-01-27T00:35:53;102579.81;;;19.93;59.90
84188;BME280;74316;45.648;13.764;2024-01-27T00:38:19;102590.53;;;19.93;60.41
84188;BME280;74316;45.648;13.764;2024-01-27T00:40:46;102591.50;;;19.92;59.79
84188;BME280;74316;45.648;13.764;2024-01-27T00:43:15;102597.88;;;19.91;60.40
84188;BME280;74316;45.648;13.764;2024-01-27T00:45:42;102592.69;;;19.89;60.30
84188;BME280;74316;45.648;13.764;2024-01-27T00:48:08;102591.84;;;19.89;60.60
84188;BME280;74316;45.648;13.764;2024-01-27T00:50:34;102593.88;;;19.87;60.19
84188;BME280;74316;45.648;13.764;2024-01-27T00:53:00;102592.19;;;19.85;60.16
84188;BME280;74316;45.648;13.764;2024-01-27T00:55:27;102592.19;;;19.85;59.82
84188;BME280;74316;45.648;13.764;2024-01-27T00:57:53;102589.69;;;19.84;59.85
84188;BME280;74316;45.648;13.764;2024-01-27T01:00:19;102589.84;;;19.82;59.96
84188;BME280;74316;45.648;13.764;2024-01-27T01:02:44;102590.81;;;19.81;60.56
84188;BME280;74316;45.648;13.764;2024-01-27T01:05:11;102592.84;;;19.79;60.28
84188;BME280;74316;45.648;13.764;2024-01-27T01:07:36;102592.84;;;19.79;60.37
84188;BME280;74316;45.648;13.764;2024-01-27T01:10:02;102580.63;;;19.77;60.70
84188;BME280;74316;45.648;13.764;2024-01-27T01:12:28;102585.97;;;19.77;60.08
84188;BME280;74316;45.648;13.764;2024-01-27T01:14:54;102586.16;;;19.75;60.13
84188;BME280;74316;45.648;13.764;2024-01-27T01:17:19;102578.28;;;19.74;60.00
84188;BME280;74316;45.648;13.764;2024-01-27T01:19:45;102582.81;;;19.73;60.20
84188;BME280;74316;45.648;13.764;2024-01-27T01:22:11;102587.47;;;19.71;60.09
84188;BME280;74316;45.648;13.764;2024-01-27T01:24:37;102587.47;;;19.71;59.89
84188;BME280;74316;45.648;13.764;2024-01-27T01:27:03;102587.63;;;19.70;60.03
84188;BME280;74316;45.648;13.764;2024-01-27T01:29:29;102601.19;;;19.68;60.01
84188;BME280;74316;45.648;13.764;2024-01-27T01:31:54;102595.84;;;19.68;60.13
84188;BME280;74316;45.648;13.764;2024-01-27T01:34:20;102596.00;;;19.67;60.10
84188;BME280;74316;45.648;13.764;2024-01-27T01:36:46;102603.19;;;19.66;60.07
84188;BME280;74316;45.648;13.764;2024-01-27T01:39:13;102599.69;;;19.66;59.82
84188;BME280;74316;45.648;13.764;2024-01-27T01:41:40;102590.16;;;19.63;60.14
84188;BME280;74316;45.648;13.764;2024-01-27T01:44:06;102595.50;;;19.63;60.58
84188;BME280;74316;45.648;13.764;2024-01-27T01:46:32;102603.53;;;19.63;59.96
84188;BME280;74316;45.648;13.764;2024-01-27T01:48:59;102591.28;;;19.61;59.86
84188;BME280;74316;45.648;13.764;2024-01-27T01:51:28;102589.44;;;19.61;60.36
84188;BME280;74316;45.648;13.764;2024-01-27T01:53:57;102599.50;;;19.59;59.74
84188;BME280;74316;45.648;13.764;2024-01-27T01:56:24;102599.50;;;19.59;60.53
84188;BME280;74316;45.648;13.764;2024-01-27T01:58:50;102602.16;;;19.59;60.15
84188;BME280;74316;45.648;13.764;2024-01-27T02:01:19;102596.16;;;19.57;59.96
84188;BME280;74316;45.648;13.764;2024-01-27T02:06:18;102600.78;;;19.55;60.05
84188;BME280;74316;45.648;13.764;2024-01-27T02:08:44;102602.81;;;19.53;60.13
84188;BME280;74316;45.648;13.764;2024-01-27T02:11:10;102598.44;;;19.52;60.16
84188;BME280;74316;45.648;13.764;2024-01-27T02:13:36;102608.47;;;19.50;60.26
84188;BME280;74316;45.648;13.764;2024-01-27T02:16:02;102603.94;;;19.50;60.08
84188;BME280;74316;45.648;13.764;2024-01-27T02:18:28;102607.63;;;19.49;60.38
84188;BME280;74316;45.648;13.764;2024-01-27T02:20:54;102612.16;;;19.49;60.24
84188;BME280;74316;45.648;13.764;2024-01-27T02:23:20;102608.78;;;19.47;60.80
84188;BME280;74316;45.648;13.764;2024-01-27T02:25:46;102607.97;;;19.46;60.10
84188;BME280;74316;45.648;13.764;2024-01-27T02:28:12;102612.47;;;19.46;60.60
84188;BME280;74316;45.648;13.764;2024-01-27T02:30:40;102607.13;;;19.46;60.08
84188;BME280;74316;45.648;13.764;2024-01-27T02:33:09;102610.81;;;19.45;60.00
84188;BME280;74316;45.648;13.764;2024-01-27T02:35:35;102611.81;;;19.44;60.45
84188;BME280;74316;45.648;13.764;2024-01-27T02:38:01;102618.16;;;19.43;60.16
84188;BME280;74316;45.648;13.764;2024-01-27T02:40:27;102614.66;;;19.42;60.03
84188;BME280;74316;45.648;13.764;2024-01-27T02:42:53;102607.63;;;19.41;60.13
84188;BME280;74316;45.648;13.764;2024-01-27T02:45:19;102617.47;;;19.41;60.72
84188;BME280;74316;45.648;13.764;2024-01-27T02:47:45;102616.50;;;19.42;60.04
84188;BME280;74316;45.648;13.764;2024-01-27T02:50:11;102603.41;;;19.39;60.42
84188;BME280;74316;45.648;13.764;2024-01-27T02:52:36;102607.75;;;19.40;60.28
84188;BME280;74316;45.648;13.764;2024-01-27T02:55:03;102617.63;;;19.39;60.21
84188;BME280;74316;45.648;13.764;2024-01-27T02:57:29;102615.94;;;19.38;59.99
84188;BME280;74316;45.648;13.764;2024-01-27T02:59:54;102615.13;;;19.38;60.62
84188;BME280;74316;45.648;13.764;2024-01-27T03:02:20;102614.28;;;19.37;59.85
84188;BME280;74316;45.648;13.764;2024-01-27T03:04:46;102608.09;;;19.37;60.16
84188;BME280;74316;45.648;13.764;2024-01-27T03:07:13;102613.44;;;19.37;59.79
84188;BME280;74316;45.648;13.764;2024-01-27T03:09:39;102610.94;;;19.35;59.95
84188;BME280;74316;45.648;13.764;2024-01-27T03:12:07;102619.97;;;19.34;59.97
84188;BME280;74316;45.648;13.764;2024-01-27T03:14:32;102616.44;;;19.34;60.01
84188;BME280;74316;45.648;13.764;2024-01-27T03:16:59;102616.63;;;19.32;60.31
84188;BME280;74316;45.648;13.764;2024-01-27T03:19:25;102615.78;;;19.32;59.90
84188;BME280;74316;45.648;13.764;2024-01-27T03:21:51;102610.44;;;19.32;60.21
84188;BME280;74316;45.648;13.764;2024-01-27T03:24:17;102609.44;;;19.33;60.20
84188;BME280;74316;45.648;13.764;2024-01-27T03:26:43;102608.72;;;19.31;59.91
84188;BME280;74316;45.648;13.764;2024-01-27T03:29:09;102609.72;;;19.29;60.51
84188;BME280;74316;45.648;13.764;2024-01-27T03:31:35;102606.22;;;19.29;60.59
84188;BME280;74316;45.648;13.764;2024-01-27T03:34:01;102617.75;;;19.29;60.45
84188;BME280;74316;45.648;13.764;2024-01-27T03:36:28;102616.09;;;19.28;59.88
84188;BME280;74316;45.648;13.764;2024-01-27T03:38:57;102617.91;;;19.28;60.43
84188;BME280;74316;45.648;13.764;2024-01-27T03:41:23;102619.75;;;19.27;59.99
84188;BME280;74316;45.648;13.764;2024-01-27T03:43:49;102634.16;;;19.26;60.21
84188;BME280;74316;45.648;13.764;2024-01-27T03:46:15;102644.00;;;19.26;60.40
84188;BME280;74316;45.648;13.764;2024-01-27T03:48:41;102646.69;;;19.26;60.21
84188;BME280;74316;45.648;13.764;2024-01-27T03:51:07;102650.38;;;19.25;60.33
84188;BME280;74316;45.648;13.764;2024-01-27T03:53:32;102649.38;;;19.26;60.22
84188;BME280;74316;45.648;13.764;2024-01-27T03:55:58;102636.31;;;19.23;60.02
84188;BME280;74316;45.648;13.764;2024-01-27T03:58:27;102642.50;;;19.23;60.56
84188;BME280;74316;45.648;13.764;2024-01-27T04:00:53;102643.50;;;19.22;60.11
84188;BME280;74316;45.648;13.764;2024-01-27T04:03:19;102651.53;;;19.22;60.42
84188;BME280;74316;45.648;13.764;2024-01-27T04:05:46;102644.50;;;19.21;60.46
84188;BME280;74316;45.648;13.764;2024-01-27T04:08:11;102649.03;;;19.21;60.27
84188;BME280;74316;45.648;13.764;2024-01-27T04:10:37;102658.03;;;19.20;60.24
84188;BME280;74316;45.648;13.764;2024-01-27T04:13:03;102647.31;;;19.20;60.39
84188;BME280;74316;45.648;13.764;2024-01-27T04:15:29;102643.81;;;19.19;60.27
84188;BME280;74316;45.648;13.764;2024-01-27T04:17:56;102642.13;;;19.18;59.85
84188;BME280;74316;45.648;13.764;2024-01-27T04:20:22;102651.16;;;19.17;60.44
84188;BME280;74316;45.648;13.764;2024-01-27T04:22:48;102644.97;;;19.17;59.97
84188;BME280;74316;45.648;13.764;2024-01-27T04:25:14;102648.66;;;19.16;60.04
84188;BME280;74316;45.648;13.764;2024-01-27T04:27:41;102650.47;;;19.15;60.19
84188;BME280;74316;45.648;13.764;2024-01-27T04:30:07;102658.50;;;19.15;59.85
84188;BME280;74316;45.648;13.764;2024-01-27T04:32:33;102667.53;;;19.14;60.23
84188;BME280;74316;45.648;13.764;2024-01-27T04:34:59;102663.03;;;19.15;60.12
84188;BME280;74316;45.648;13.764;2024-01-27T04:37:25;102655.00;;;19.15;60.23
84188;BME280;74316;45.648;13.764;2024-01-27T04:39:50;102659.50;;;19.14;59.94
84188;BME280;74316;45.648;13.764;2024-01-27T04:42:16;102659.69;;;19.13;59.90
84188;BME280;74316;45.648;13.764;2024-01-27T04:44:42;102663.34;;;19.12;60.04
84188;BME280;74316;45.648;13.764;2024-01-27T04:47:08;102653.50;;;19.12;59.99
84188;BME280;74316;45.648;13.764;2024-01-27T04:49:34;102653.66;;;19.11;60.07
84188;BME280;74316;45.648;13.764;2024-01-27T04:51:59;102666.16;;;19.10;59.91
84188;BME280;74316;45.648;13.764;2024-01-27T04:54:26;102664.47;;;19.09;59.78
84188;BME280;74316;45.648;13.764;2024-01-27T04:56:52;102666.16;;;19.10;59.83
84188;BME280;74316;45.648;13.764;2024-01-27T04:59:18;102664.47;;;19.09;59.96
84188;BME280;74316;45.648;13.764;2024-01-27T05:01:45;102664.47;;;19.09;60.06
84188;BME280;74316;45.648;13.764;2024-01-27T05:04:11;102655.63;;;19.09;60.09
84188;BME280;74316;45.648;13.764;2024-01-27T05:06:36;102655.78;;;19.07;60.24
84188;BME280;74316;45.648;13.764;2024-01-27T05:09:04;102649.59;;;19.07;59.81
84188;BME280;74316;45.648;13.764;2024-01-27T05:11:31;102650.28;;;19.09;59.61
84188;BME280;74316;45.648;13.764;2024-01-27T05:13:58;102659.13;;;19.09;59.59
84188;BME280;74316;45.648;13.764;2024-01-27T05:16:24;102661.69;;;19.11;59.96
84188;BME280;74316;45.648;13.764;2024-01-27T05:18:49;102658.00;;;19.12;59.91
84188;BME280;74316;45.648;13.764;2024-01-27T05:21:15;102655.16;;;19.13;59.45
84188;BME280;74316;45.648;13.764;2024-01-27T05:23:41;102663.84;;;19.15;59.51
84188;BME280;74316;45.648;13.764;2024-01-27T05:26:07;102664.53;;;19.17;59.41
84188;BME280;74316;45.648;13.764;2024-01-27T05:28:32;102672.22;;;19.20;59.49
84188;BME280;74316;45.648;13.764;2024-01-27T05:30:58;102681.81;;;19.23;59.41
84188;BME280;74316;45.648;13.764;2024-01-27T05:33:27;102686.00;;;19.25;59.45
84188;BME280;74316;45.648;13.764;2024-01-27T05:35:53;102675.97;;;19.27;59.20
84188;BME280;74316;45.648;13.764;2024-01-27T05:38:18;102683.66;;;19.31;59.05
84188;BME280;74316;45.648;13.764;2024-01-27T05:40:44;102687.72;;;19.35;59.45
84188;BME280;74316;45.648;13.764;2024-01-27T05:43:10;102694.59;;;19.37;59.37
84188;BME280;74316;45.648;13.764;2024-01-27T05:45:36;102696.78;;;19.42;59.30
84188;BME280;74316;45.648;13.764;2024-01-27T05:48:02;102697.47;;;19.44;59.00
84188;BME280;74316;45.648;13.764;2024-01-27T05:50:28;102701.50;;;19.48;58.81
84188;BME280;74316;45.648;13.764;2024-01-27T05:53:02;102700.19;;;19.52;58.87
84188;BME280;74316;45.648;13.764;2024-01-27T05:55:28;102705.91;;;19.57;58.80
84188;BME280;74316;45.648;13.764;2024-01-27T05:57:55;102724.16;;;19.62;58.78
84188;BME280;74316;45.648;13.764;2024-01-27T06:00:22;102724.69;;;19.65;58.46
84188;BME280;74316;45.648;13.764;2024-01-27T06:02:48;102735.91;;;19.69;58.38
84188;BME280;74316;45.648;13.764;2024-01-27T06:05:13;102734.44;;;19.74;58.66
84188;BME280;74316;45.648;13.764;2024-01-27T06:07:40;102733.28;;;19.77;58.20
84188;BME280;74316;45.648;13.764;2024-01-27T06:10:09;102748.00;;;19.81;57.99
84188;BME280;74316;45.648;13.764;2024-01-27T06:12:38;102752.06;;;19.85;57.79
84188;BME280;74316;45.648;13.764;2024-01-27T06:15:04;102755.25;;;19.89;58.23
84188;BME280;74316;45.648;13.764;2024-01-27T06:17:31;102754.25;;;19.90;57.92
84188;BME280;74316;45.648;13.764;2024-01-27T06:19:57;102754.09;;;19.91;57.94
84188;BME280;74316;45.648;13.764;2024-01-27T06:22:24;102759.31;;;19.93;57.82
84188;BME280;74316;45.648;13.764;2024-01-27T06:24:50;102762.66;;;19.95;57.09
84188;BME280;74316;45.648;13.764;2024-01-27T06:27:16;102769.69;;;19.96;58.10
84188;BME280;74316;45.648;13.764;2024-01-27T06:29:42;102776.72;;;19.97;57.49
84188;BME280;74316;45.648;13.764;2024-01-27T06:32:09;102776.72;;;19.97;57.16
84188;BME280;74316;45.648;13.764;2024-01-27T06:34:34;102772.03;;;19.99;57.54
84188;BME280;74316;45.648;13.764;2024-01-27T06:37:01;102770.19;;;19.99;57.40
84188;BME280;74316;45.648;13.764;2024-01-27T06:39:27;102779.06;;;20.00;57.45
84188;BME280;74316;45.648;13.764;2024-01-27T06:41:57;102781.75;;;20.00;57.54
84188;BME280;74316;45.648;13.764;2024-01-27T06:44:23;102790.78;;;19.99;57.71
84188;BME280;74316;45.648;13.764;2024-01-27T06:46:50;102794.13;;;20.01;57.47
84188;BME280;74316;45.648;13.764;2024-01-27T06:49:18;102789.63;;;20.01;58.00
84188;BME280;74316;45.648;13.764;2024-01-27T06:51:45;102787.78;;;20.02;57.90
84188;BME280;74316;45.648;13.764;2024-01-27T06:54:11;102792.16;;;20.03;57.93
84188;BME280;74316;45.648;13.764;2024-01-27T06:56:36;102795.69;;;20.03;57.31
84188;BME280;74316;45.648;13.764;2024-01-27T06:59:03;102796.50;;;20.04;57.57
84188;BME280;74316;45.648;13.764;2024-01-27T07:01:29;102800.88;;;20.05;57.79
84188;BME280;74316;45.648;13.764;2024-01-27T07:03:55;102806.22;;;20.05;58.09
84188;BME280;74316;45.648;13.764;2024-01-27T07:06:22;102805.22;;;20.06;57.83
84188;BME280;74316;45.648;13.764;2024-01-27T07:08:48;102812.44;;;20.05;57.16
84188;BME280;74316;45.648;13.764;2024-01-27T07:11:14;102808.75;;;20.06;57.96
84188;BME280;74316;45.648;13.764;2024-01-27T07:13:43;102810.41;;;20.07;57.29
84188;BME280;74316;45.648;13.764;2024-01-27T07:16:09;102816.63;;;20.08;56.89
84188;BME280;74316;45.648;13.764;2024-01-27T07:18:35;102829.00;;;20.09;57.48
84188;BME280;74316;45.648;13.764;2024-01-27T07:21:01;102826.34;;;20.09;57.82
84188;BME280;74316;45.648;13.764;2024-01-27T07:23:28;102831.69;;;20.09;57.84
84188;BME280;74316;45.648;13.764;2024-01-27T07:25:54;102831.69;;;20.09;57.58
84188;BME280;74316;45.648;13.764;2024-01-27T07:28:20;102826.00;;;20.12;58.22
84188;BME280;74316;45.648;13.764;2024-01-27T07:30:46;102837.72;;;20.11;57.65
84188;BME280;74316;45.648;13.764;2024-01-27T07:33:12;102835.03;;;20.11;57.46
84188;BME280;74316;45.648;13.764;2024-01-27T07:35:38;102837.56;;;20.12;57.77
84188;BME280;74316;45.648;13.764;2024-01-27T07:38:04;102845.59;;;20.12;57.79
84188;BME280;74316;45.648;13.764;2024-01-27T07:40:30;102841.09;;;20.13;57.70
84188;BME280;74316;45.648;13.764;2024-01-27T07:42:55;102853.50;;;20.14;57.65
84188;BME280;74316;45.648;13.764;2024-01-27T07:45:21;102855.19;;;20.15;57.64
84188;BME280;74316;45.648;13.764;2024-01-27T07:47:47;102855.19;;;20.15;57.51
84188;BME280;74316;45.648;13.764;2024-01-27T07:50:14;102852.56;;;19.97;54.90
84188;BME280;74316;45.648;13.764;2024-01-27T07:52:43;102858.94;;;19.70;52.68
84188;BME280;74316;45.648;13.764;2024-01-27T07:55:12;102861.88;;;19.59;52.63
84188;BME280;74316;45.648;13.764;2024-01-27T07:57:37;102859.91;;;19.43;50.85
84188;BME280;74316;45.648;13.764;2024-01-27T08:00:03;102861.28;;;19.29;47.82
84188;BME280;74316;45.648;13.764;2024-01-27T08:02:32;102866.59;;;19.21;48.47
84188;BME280;74316;45.648;13.764;2024-01-27T08:04:58;102873.56;;;19.14;49.22
84188;BME280;74316;45.648;13.764;2024-01-27T08:07:24;102871.66;;;19.07;48.97
84188;BME280;74316;45.648;13.764;2024-01-27T08:09:50;102876.91;;;18.98;48.11
84188;BME280;74316;45.648;13.764;2024-01-27T08:12:16;102878.38;;;18.93;47.80
84188;BME280;74316;45.648;13.764;2024-01-27T08:14:41;102878.19;;;18.77;46.67
84188;BME280;74316;45.648;13.764;2024-01-27T08:17:08;102886.28;;;18.67;47.16
84188;BME280;74316;45.648;13.764;2024-01-27T08:19:33;102894.06;;;18.60;47.38
84188;BME280;74316;45.648;13.764;2024-01-27T08:21:59;102883.22;;;18.62;48.49
84188;BME280;74316;45.648;13.764;2024-01-27T08:24:27;102895.88;;;18.60;47.61
84188;BME280;74316;45.648;13.764;2024-01-27T08:26:53;102897.31;;;18.54;47.65
84188;BME280;74316;45.648;13.764;2024-01-27T08:29:19;102887.19;;;18.48;47.93
84188;BME280;74316;45.648;13.764;2024-01-27T08:31:47;102901.19;;;18.42;47.47
84188;BME280;74316;45.648;13.764;2024-01-27T08:34:13;102903.16;;;18.40;47.96
84188;BME280;74316;45.648;13.764;2024-01-27T08:36:39;102903.06;;;18.32;46.96
84188;BME280;74316;45.648;13.764;2024-01-27T08:39:05;102902.38;;;18.30;47.01
84188;BME280;74316;45.648;13.764;2024-01-27T08:41:35;102903.47;;;18.27;46.50
84188;BME280;74316;45.648;13.764;2024-01-27T08:44:01;102894.88;;;18.33;47.17
84188;BME280;74316;45.648;13.764;2024-01-27T08:46:28;102902.56;;;18.46;47.46
84188;BME280;74316;45.648;13.764;2024-01-27T08:48:54;102906.84;;;18.57;48.02
84188;BME280;74316;45.648;13.764;2024-01-27T08:51:24;102906.69;;;18.68;47.97
84188;BME280;74316;45.648;13.764;2024-01-27T08:53:50;102909.44;;;18.76;47.01
84188;BME280;74316;45.648;13.764;2024-01-27T08:56:17;102906.03;;;18.84;47.58
84188;BME280;74316;45.648;13.764;2024-01-27T08:58:46;102908.81;;;18.92;48.53
84188;BME280;74316;45.648;13.764;2024-01-27T09:01:12;102899.47;;;18.96;48.25
84188;BME280;74316;45.648;13.764;2024-01-27T09:03:40;102897.19;;;19.01;47.72
84188;BME280;74316;45.648;13.764;2024-01-27T09:06:06;102904.06;;;19.04;48.95
84188;BME280;74316;45.648;13.764;2024-01-27T09:08:33;102903.91;;;19.05;48.15
84188;BME280;74316;45.648;13.764;2024-01-27T09:10:59;102908.25;;;19.06;49.37
84188;BME280;74316;45.648;13.764;2024-01-27T09:13:25;102902.59;;;19.09;49.28
84188;BME280;74316;45.648;13.764;2024-01-27T09:15:52;102903.31;;;19.11;49.03
84188;BME280;74316;45.648;13.764;2024-01-27T09:18:18;102908.34;;;19.14;48.94
84188;BME280;74316;45.648;13.764;2024-01-27T09:20:43;102910.03;;;19.15;49.32
84188;BME280;74316;45.648;13.764;2024-01-27T09:23:09;102920.72;;;19.15;49.26
84188;BME280;74316;45.648;13.764;2024-01-27T09:25:35;102917.91;;;19.17;49.99
84188;BME280;74316;45.648;13.764;2024-01-27T09:28:00;102913.38;;;19.17;49.97
84188;BME280;74316;45.648;13.764;2024-01-27T09:30:26;102922.09;;;19.19;50.41
84188;BME280;74316;45.648;13.764;2024-01-27T09:32:52;102925.75;;;19.18;50.34
84188;BME280;74316;45.648;13.764;2024-01-27T09:35:18;102922.09;;;19.19;50.63
84188;BME280;74316;45.648;13.764;2024-01-27T09:37:46;102924.09;;;19.17;50.53
84188;BME280;74316;45.648;13.764;2024-01-27T09:40:12;102931.78;;;19.20;50.21
84188;BME280;74316;45.648;13.764;2024-01-27T09:42:38;102927.44;;;19.19;50.27
84188;BME280;74316;45.648;13.764;2024-01-27T09:45:05;102939.81;;;19.20;50.86
84188;BME280;74316;45.648;13.764;2024-01-27T09:47:31;102937.16;;;19.20;50.56
84188;BME280;74316;45.648;13.764;2024-01-27T09:49:57;102945.19;;;19.20;50.44
84188;BME280;74316;45.648;13.764;2024-01-27T09:52:23;102938.16;;;19.19;50.52
84188;BME280;74316;45.648;13.764;2024-01-27T09:54:49;102945.19;;;19.20;51.32
84188;BME280;74316;45.648;13.764;2024-01-27T09:57:16;102956.75;;;19.21;50.90
84188;BME280;74316;45.648;13.764;2024-01-27T09:59:44;102950.53;;;19.20;51.07
84188;BME280;74316;45.648;13.764;2024-01-27T10:02:12;102950.53;;;19.20;51.01
84188;BME280;74316;45.648;13.764;2024-01-27T10:04:41;102952.38;;;19.20;51.19
84188;BME280;74316;45.648;13.764;2024-01-27T10:07:07;102951.41;;;19.21;51.41
84188;BME280;74316;45.648;13.764;2024-01-27T10:09:33;102950.53;;;19.20;51.34
84188;BME280;74316;45.648;13.764;2024-01-27T10:12:01;102956.75;;;19.21;51.49
84188;BME280;74316;45.648;13.764;2024-01-27T10:14:40;102949.69;;;19.20;51.92
84188;BME280;74316;45.648;13.764;2024-01-27T10:17:05;102947.84;;;19.20;51.57
84188;BME280;74316;45.648;13.764;2024-01-27T10:19:34;102945.19;;;19.20;51.85
84188;BME280;74316;45.648;13.764;2024-01-27T10:22:01;102936.47;;;19.18;51.74
84188;BME280;74316;45.648;13.764;2024-01-27T10:24:31;102938.16;;;19.19;52.16
84188;BME280;74316;45.648;13.764;2024-01-27T10:27:04;102933.78;;;19.18;52.06
84188;BME280;74316;45.648;13.764;2024-01-27T10:29:30;102929.44;;;19.17;52.22
84188;BME280;74316;45.648;13.764;2024-01-27T10:32:07;102929.44;;;19.17;52.21
84188;BME280;74316;45.648;13.764;2024-01-27T10:34:32;102931.13;;;19.18;51.94
84188;BME280;74316;45.648;13.764;2024-01-27T10:36:58;102922.41;;;19.16;51.88
84188;BME280;74316;45.648;13.764;2024-01-27T10:39:24;102921.41;;;19.17;52.37
84188;BME280;74316;45.648;13.764;2024-01-27T10:41:50;102925.09;;;19.16;52.10
84188;BME280;74316;45.648;13.764;2024-01-27T10:44:18;102930.44;;;19.16;52.54
84188;BME280;74316;45.648;13.764;2024-01-27T10:46:44;102927.75;;;19.16;52.36
84188;BME280;74316;45.648;13.764;2024-01-27T10:49:16;102925.09;;;19.16;52.81
84188;BME280;74316;45.648;13.764;2024-01-27T10:51:55;102924.09;;;19.17;52.74
84188;BME280;74316;45.648;13.764;2024-01-27T10:54:27;102924.09;;;19.17;52.44
84188;BME280;74316;45.648;13.764;2024-01-27T10:56:55;102920.41;;;19.18;52.84
84188;BME280;74316;45.648;13.764;2024-01-27T10:59:22;102922.09;;;19.19;52.93
84188;BME280;74316;45.648;13.764;2024-01-27T11:01:51;102921.09;;;19.20;52.58
84188;BME280;74316;45.648;13.764;2024-01-27T11:04:20;102927.44;;;19.19;52.73
84188;BME280;74316;45.648;13.764;2024-01-27T11:06:47;102920.13;;;19.21;52.58
84188;BME280;74316;45.648;13.764;2024-01-27T11:09:13;102924.63;;;19.21;52.96
84188;BME280;74316;45.648;13.764;2024-01-27T11:11:41;102920.13;;;19.21;52.94
84188;BME280;74316;45.648;13.764;2024-01-27T11:14:09;102923.50;;;19.23;53.19
84188;BME280;74316;45.648;13.764;2024-01-27T11:16:35;102921.50;;;19.25;53.03
84188;BME280;74316;45.648;13.764;2024-01-27T11:19:01;102924.00;;;19.27;52.52
84188;BME280;74316;45.648;13.764;2024-01-27T11:21:27;102922.84;;;19.29;52.67
84188;BME280;74316;45.648;13.764;2024-01-27T11:23:53;102919.88;;;19.33;52.46
84188;BME280;74316;45.648;13.764;2024-01-27T11:26:21;102932.97;;;19.36;52.84
84188;BME280;74316;45.648;13.764;2024-01-27T11:28:50;102929.97;;;19.39;52.34
84188;BME280;74316;45.648;13.764;2024-01-27T11:31:20;102931.19;;;19.44;53.06
84188;BME280;74316;45.648;13.764;2024-01-27T11:33:50;102935.41;;;19.47;52.83
84188;BME280;74316;45.648;13.764;2024-01-27T11:36:24;102938.47;;;19.52;53.08
84188;BME280;74316;45.648;13.764;2024-01-27T11:38:53;102948.56;;;19.58;52.73
84188;BME280;74316;45.648;13.764;2024-01-27T11:41:29;102951.63;;;19.63;52.47
84188;BME280;74316;45.648;13.764;2024-01-27T11:43:56;102953.31;;;19.64;51.95
84188;BME280;74316;45.648;13.764;2024-01-27T11:46:22;102960.03;;;19.68;52.34
84188;BME280;74316;45.648;13.764;2024-01-27T11:48:48;102962.38;;;19.71;52.51
84188;BME280;74316;45.648;13.764;2024-01-27T11:51:14;102954.75;;;19.76;52.37
84188;BME280;74316;45.648;13.764;2024-01-27T11:53:40;102950.75;;;19.80;52.13
84188;BME280;74316;45.648;13.764;2024-01-27T11:56:06;102959.16;;;19.85;51.89
84188;BME280;74316;45.648;13.764;2024-01-27T11:58:33;102962.03;;;19.92;51.31
84188;BME280;74316;45.648;13.764;2024-01-27T12:00:59;102957.91;;;19.98;52.09
84188;BME280;74316;45.648;13.764;2024-01-27T12:03:26;102957.59;;;20.01;52.18
84188;BME280;74316;45.648;13.764;2024-01-27T12:05:52;102963.31;;;20.06;52.03
84188;BME280;74316;45.648;13.764;2024-01-27T12:08:18;102959.31;;;20.10;52.92
84188;BME280;74316;45.648;13.764;2024-01-27T12:10:44;102960.69;;;20.14;52.62
84188;BME280;74316;45.648;13.764;2024-01-27T12:13:10;102944.28;;;20.17;53.05
84188;BME280;74316;45.648;13.764;2024-01-27T12:15:36;102947.66;;;20.19;53.04
84188;BME280;74316;45.648;13.764;2024-01-27T12:18:04;102947.47;;;20.21;53.97
84188;BME280;74316;45.648;13.764;2024-01-27T12:20:30;102946.34;;;20.23;54.17
84188;BME280;74316;45.648;13.764;2024-01-27T12:23:03;102945.34;;;20.24;54.08
84188;BME280;74316;45.648;13.764;2024-01-27T12:25:29;102942.16;;;20.29;54.52
84188;BME280;74316;45.648;13.764;2024-01-27T12:27:54;102947.38;;;20.30;55.53
84188;BME280;74316;45.648;13.764;2024-01-27T12:30:21;102941.00;;;20.31;55.09
84188;BME280;74316;45.648;13.764;2024-01-27T12:32:47;102949.75;;;20.33;55.93
84188;BME280;74316;45.648;13.764;2024-01-27T12:35:13;102940.72;;;20.34;55.79
84188;BME280;74316;45.648;13.764;2024-01-27T12:37:43;102940.72;;;20.34;56.28
84188;BME280;74316;45.648;13.764;2024-01-27T12:40:18;102940.72;;;20.34;56.34